Time;durP1;ratioP1;P1;durP2;ratioP2;P2;SDS_P1;SDS_P2;PMS_P1;PMS_P2;Temp;Humidity;BMP_temperature;BMP_pressure;BME280_temperature;BME280_humidity;BME280_pressure;Samples;Min_cycle;Max_cycle;Signal;HPM_P1;HPM_P2
2022/06/06 00:01:41;;;;;;;;;;;;;;;;;;4981292;28;126525;-62
2022/06/06 00:04:08;;;;;;;;;;;;;;;;;;4966894;28;134773;-63
2022/06/06 00:06:34;;;;;;;;;;;;;;;;;;4965464;28;134360;-64
2022/06/06 00:09:00;;;;;;;;;;;;;;;;;;4968304;28;106701;-62
2022/06/06 00:11:26;;;;;;;;;;;;;;;;;;4965000;28;127978;-62
2022/06/06 00:13:53;;;;;;;;;;;;;;;;;;4968085;28;126563;-62
2022/06/06 00:16:19;;;;;;;;;;;;;;;;;;4973193;28;106706;-62
2022/06/06 00:18:45;;;;;;;;;;;;;;;;;;4967268;28;136325;-62
2022/06/06 00:21:12;;;;;;;;;;;;;;;;;;4967858;28;136966;-62
2022/06/06 00:23:38;;;;;;;;;;;;;;;;;;4967447;28;127646;-63
2022/06/06 00:26:05;;;;;;;;;;;;;;;;;;4963823;28;131325;-63
2022/06/06 00:28:31;;;;;;;;;;;;;;;;;;4967818;28;113951;-63
2022/06/06 00:30:57;;;;;;;;;;;;;;;;;;4966765;28;136675;-62
2022/06/06 00:36:09;;;;;;;;;;;;;;;;;;4960771;28;108447;-63
2022/06/06 00:38:36;;;;;;;;;;;;;;;;;;4965006;28;114706;-63
2022/06/06 00:41:02;;;;;;;;;;;;;;;;;;4967062;28;106725;-63
2022/06/06 00:43:28;;;;;;;;;;;;;;;;;;4970840;28;130293;-62
2022/06/06 00:45:55;;;;;;;;;;;;;;;;;;4975009;28;112228;-62
2022/06/06 00:48:21;;;;;;;;;;;;;;;;;;4960909;28;128801;-65
2022/06/06 00:50:47;;;;;;;;;;;;;;;;;;4966428;28;137767;-62
2022/06/06 00:53:14;;;;;;;;;;;;;;;;;;4970962;28;109296;-63
2022/06/06 00:55:41;;;;;;;;;;;;;;;;;;4965128;28;129930;-62
2022/06/06 00:58:08;;;;;;;;;;;;;;;;;;4967002;28;134108;-63
2022/06/06 01:00:34;;;;;;;;;;;;;;;;;;4986137;28;136596;-65
2022/06/06 01:03:00;;;;;;;;;;;;;;;;;;4971003;28;129392;-62
2022/06/06 01:05:27;;;;;;;;;;;;;;;;;;4969338;28;119893;-65
2022/06/06 01:07:53;;;;;;;;;;;;;;;;;;4964659;28;127617;-62
2022/06/06 01:10:21;;;;;;;;;;;;;;;;;;4965163;28;134832;-62
2022/06/06 01:12:47;;;;;;;;;;;;;;;;;;4960899;28;136322;-62
2022/06/06 01:15:14;;;;;;;;;;;;;;;;;;4966637;28;127070;-62
2022/06/06 01:17:40;;;;;;;;;;;;;;;;;;4966461;28;134011;-63
2022/06/06 01:20:06;;;;;;;;;;;;;;;;;;4957375;28;109005;-62
2022/06/06 01:22:32;;;;;;;;;;;;;;;;;;4967436;28;128661;-62
2022/06/06 01:24:59;;;;;;;;;;;;;;;;;;4964651;28;107010;-62
2022/06/06 01:27:25;;;;;;;;;;;;;;;;;;4970313;28;137391;-63
2022/06/06 01:29:51;;;;;;;;;;;;;;;;;;4966508;28;132761;-63
2022/06/06 01:32:17;;;;;;;;;;;;;;;;;;4965790;28;136944;-63
2022/06/06 01:34:44;;;;;;;;;;;;;;;;;;4964055;28;129454;-63
2022/06/06 01:37:10;;;;;;;;;;;;;;;;;;4965770;28;127508;-63
2022/06/06 01:39:36;;;;;;;;;;;;;;;;;;4962051;28;119895;-63
2022/06/06 01:42:03;;;;;;;;;;;;;;;;;;4972327;28;129408;-63
2022/06/06 01:44:29;;;;;;;;;;;;;;;;;;4979947;28;106778;-63
2022/06/06 01:46:55;;;;;;;;;;;;;;;;;;4966013;28;135699;-63
2022/06/06 01:49:23;;;;;;;;;;;;;;;;;;4968895;28;107014;-63
2022/06/06 01:51:50;;;;;;;;;;;;;;;;;;4977475;28;131168;-63
2022/06/06 01:54:17;;;;;;;;;;;;;;;;;;4968692;28;107583;-63
2022/06/06 01:56:43;;;;;;;;;;;;;;;;;;4964172;28;135265;-61
2022/06/06 01:59:09;;;;;;;;;;;;;;;;;;4966063;28;117804;-63
2022/06/06 02:01:36;;;;;;;;;;;;;;;;;;4966081;28;106058;-63
2022/06/06 02:04:02;;;;;;;;;;;;;;;;;;4978275;28;106728;-62
2022/06/06 02:06:28;;;;;;;;;;;;;;;;;;4955129;28;139538;-62
2022/06/06 02:08:55;;;;;;;;;;;;;;;;;;4967514;28;119602;-62
2022/06/06 02:11:21;;;;;;;;;;;;;;;;;;4964076;28;125856;-65
2022/06/06 02:13:47;;;;;;;;;;;;;;;;;;4967214;28;107234;-62
2022/06/06 02:16:14;;;;;;;;;;;;;;;;;;4964576;28;125343;-63
2022/06/06 02:18:40;;;;;;;;;;;;;;;;;;4969305;28;132860;-62
2022/06/06 02:21:07;;;;;;;;;;;;;;;;;;4964781;28;113529;-62
2022/06/06 02:23:34;;;;;;;;;;;;;;;;;;4971075;28;106932;-64
2022/06/06 02:26:00;;;;;;;;;;;;;;;;;;4967102;28;134209;-62
2022/06/06 02:28:30;;;;;;;;;;;;;;;;;;4965642;28;123367;-62
2022/06/06 02:30:56;;;;;;;;;;;;;;;;;;4965651;28;134695;-62
2022/06/06 02:33:23;;;;;;;;;;;;;;;;;;4962931;28;130068;-62
2022/06/06 02:35:49;;;;;;;;;;;;;;;;;;4964011;28;131353;-63
2022/06/06 02:38:15;;;;;;;;;;;;;;;;;;4964457;28;133922;-64
2022/06/06 02:40:44;;;;;;;;;;;;;;;;;;4964954;28;123925;-63
2022/06/06 02:43:10;;;;;;;;;;;;;;;;;;4967131;28;107211;-62
2022/06/06 02:45:37;;;;;;;;;;;;;;;;;;4966199;28;117930;-62
2022/06/06 02:48:07;;;;;;;;;;;;;;;;;;4966809;28;106375;-62
2022/06/06 02:50:33;;;;;;;;;;;;;;;;;;4968594;28;131789;-62
2022/06/06 02:52:59;;;;;;;;;;;;;;;;;;4974005;28;131442;-62
2022/06/06 02:55:26;;;;;;;;;;;;;;;;;;4972774;28;135734;-62
2022/06/06 02:57:52;;;;;;;;;;;;;;;;;;4967061;28;121338;-62
2022/06/06 03:00:21;;;;;;;;;;;;;;;;;;4976765;28;106942;-62
2022/06/06 03:02:48;;;;;;;;;;;;;;;;;;4969344;28;125288;-62
2022/06/06 03:05:14;;;;;;;;;;;;;;;;;;4972515;28;137740;-62
2022/06/06 03:07:40;;;;;;;;;;;;;;;;;;4984978;28;118941;-62
2022/06/06 03:10:07;;;;;;;;;;;;;;;;;;4966481;28;120813;-62
2022/06/06 03:12:33;;;;;;;;;;;;;;;;;;4973137;28;134637;-62
2022/06/06 03:14:59;;;;;;;;;;;;;;;;;;4976395;28;123788;-62
2022/06/06 03:22:55;;;;;;;;;;;;;;;;;;4969169;28;108294;-62
2022/06/06 03:25:24;;;;;;;;;;;;;;;;;;4961085;28;127511;-62
2022/06/06 03:27:51;;;;;;;;;;;;;;;;;;4967616;28;107267;-62
2022/06/06 03:30:17;;;;;;;;;;;;;;;;;;4968362;28;123377;-62
2022/06/06 03:32:44;;;;;;;;;;;;;;;;;;4958463;28;136566;-62
2022/06/06 03:35:10;;;;;;;;;;;;;;;;;;4966615;28;122627;-62
2022/06/06 03:37:37;;;;;;;;;;;;;;;;;;4971150;28;107530;-62
2022/06/06 03:40:04;;;;;;;;;;;;;;;;;;4967699;28;129421;-62
2022/06/06 03:42:30;;;;;;;;;;;;;;;;;;4969108;28;131013;-62
2022/06/06 03:44:56;;;;;;;;;;;;;;;;;;4966022;28;121437;-62
2022/06/06 03:47:22;;;;;;;;;;;;;;;;;;4967423;28;128700;-62
2022/06/06 03:49:49;;;;;;;;;;;;;;;;;;4968733;28;115735;-64
2022/06/06 03:52:15;;;;;;;;;;;;;;;;;;4965604;28;130124;-62
2022/06/06 03:54:41;;;;;;;;;;;;;;;;;;4967134;28;113088;-62
2022/06/06 03:57:08;;;;;;;;;;;;;;;;;;4967199;28;137137;-62
2022/06/06 03:59:34;;;;;;;;;;;;;;;;;;4974159;28;133474;-64
2022/06/06 04:02:00;;;;;;;;;;;;;;;;;;4972617;28;123384;-63
2022/06/06 04:04:26;;;;;;;;;;;;;;;;;;4966218;28;136738;-62
2022/06/06 04:06:53;;;;;;;;;;;;;;;;;;4966330;28;113388;-62
2022/06/06 04:09:19;;;;;;;;;;;;;;;;;;4974761;28;116788;-62
2022/06/06 04:11:45;;;;;;;;;;;;;;;;;;4965837;28;136080;-62
2022/06/06 04:14:12;;;;;;;;;;;;;;;;;;4967536;28;127968;-62
2022/06/06 04:16:38;;;;;;;;;;;;;;;;;;4967442;28;123756;-62
2022/06/06 04:19:04;;;;;;;;;;;;;;;;;;4962921;28;136984;-64
2022/06/06 04:21:31;;;;;;;;;;;;;;;;;;4970914;28;122157;-62
2022/06/06 04:23:57;;;;;;;;;;;;;;;;;;4966641;28;131021;-62
2022/06/06 04:26:23;;;;;;;;;;;;;;;;;;4967320;28;126294;-62
2022/06/06 04:28:50;;;;;;;;;;;;;;;;;;4972045;28;120095;-62
2022/06/06 04:31:16;;;;;;;;;;;;;;;;;;4974632;28;136677;-62
2022/06/06 04:33:42;;;;;;;;;;;;;;;;;;4968260;28;123874;-62
2022/06/06 04:36:09;;;;;;;;;;;;;;;;;;4965012;28;122879;-63
2022/06/06 04:38:36;;;;;;;;;;;;;;;;;;4965975;28;135080;-63
2022/06/06 04:41:02;;;;;;;;;;;;;;;;;;4970544;28;129408;-63
2022/06/06 04:43:28;;;;;;;;;;;;;;;;;;4963000;28;137170;-63
2022/06/06 04:45:55;;;;;;;;;;;;;;;;;;4958350;28;127682;-63
2022/06/06 04:48:21;;;;;;;;;;;;;;;;;;4965688;28;135916;-64
2022/06/06 04:50:52;;;;;;;;;;;;;;;;;;4965921;28;127732;-63
2022/06/06 04:53:18;;;;;;;;;;;;;;;;;;4965390;28;107002;-63
2022/06/06 04:55:45;;;;;;;;;;;;;;;;;;4964290;28;138237;-62
2022/06/06 04:58:11;;;;;;;;;;;;;;;;;;4972328;28;127699;-63
2022/06/06 05:00:37;;;;;;;;;;;;;;;;;;4966221;28;119430;-63
2022/06/06 05:03:04;;;;;;;;;;;;;;;;;;4975517;28;135175;-65
2022/06/06 05:05:30;;;;;;;;;;;;;;;;;;4963629;28;119290;-63
2022/06/06 05:07:59;;;;;;;;;;;;;;;;;;4963851;28;123379;-63
2022/06/06 05:10:25;;;;;;;;;;;;;;;;;;4961939;28;138328;-63
2022/06/06 05:12:51;;;;;;;;;;;;;;;;;;4964257;28;130353;-63
2022/06/06 05:15:17;;;;;;;;;;;;;;;;;;4968105;28;115106;-63
2022/06/06 05:17:44;;;;;;;;;;;;;;;;;;4966282;28;119785;-63
2022/06/06 05:20:10;;;;;;;;;;;;;;;;;;4965936;28;127633;-63
2022/06/06 05:22:39;;;;;;;;;;;;;;;;;;4966844;28;123602;-63
2022/06/06 05:25:06;;;;;;;;;;;;;;;;;;4969580;28;109233;-63
2022/06/06 05:27:32;;;;;;;;;;;;;;;;;;4966354;28;131436;-64
2022/06/06 05:29:58;;;;;;;;;;;;;;;;;;4966691;28;108399;-63
2022/06/06 05:32:25;;;;;;;;;;;;;;;;;;4965466;28;126786;-64
2022/06/06 05:34:51;;;;;;;;;;;;;;;;;;4966227;28;124843;-63
2022/06/06 05:37:17;;;;;;;;;;;;;;;;;;4960516;28;106338;-63
2022/06/06 05:39:44;;;;;;;;;;;;;;;;;;4959677;28;126385;-64
2022/06/06 05:42:10;;;;;;;;;;;;;;;;;;4965798;28;136126;-63
2022/06/06 05:44:36;;;;;;;;;;;;;;;;;;4980678;28;136958;-62
2022/06/06 05:47:03;;;;;;;;;;;;;;;;;;4969844;28;125995;-64
2022/06/06 05:49:29;;;;;;;;;;;;;;;;;;4968350;28;107454;-63
2022/06/06 05:51:56;;;;;;;;;;;;;;;;;;4965927;28;126916;-63
2022/06/06 05:54:22;;;;;;;;;;;;;;;;;;4965126;28;116956;-63
2022/06/06 05:56:48;;;;;;;;;;;;;;;;;;4965936;28;136964;-63
2022/06/06 05:59:19;;;;;;;;;;;;;;;;;;4971362;28;106848;-63
2022/06/06 06:01:45;;;;;;;;;;;;;;;;;;4965755;28;130413;-63
2022/06/06 06:04:11;;;;;;;;;;;;;;;;;;4962006;28;123629;-63
2022/06/06 06:06:38;;;;;;;;;;;;;;;;;;4973247;28;129159;-63
2022/06/06 06:09:04;;;;;;;;;;;;;;;;;;4968668;28;108956;-66
2022/06/06 06:11:30;;;;;;;;;;;;;;;;;;4965965;28;116890;-63
2022/06/06 06:13:57;;;;;;;;;;;;;;;;;;4964532;28;125147;-63
2022/06/06 06:16:23;;;;;;;;;;;;;;;;;;4966066;28;132267;-63
2022/06/06 06:18:49;;;;;;;;;;;;;;;;;;4967665;28;105770;-63
2022/06/06 06:21:15;;;;;;;;;;;;;;;;;;4965005;28;135464;-63
2022/06/06 06:23:42;;;;;;;;;;;;;;;;;;4965119;28;131836;-63
2022/06/06 06:26:09;;;;;;;;;;;;;;;;;;4967177;28;123867;-63
2022/06/06 06:28:36;;;;;;;;;;;;;;;;;;4961355;28;106637;-64
2022/06/06 06:31:03;;;;;;;;;;;;;;;;;;4973100;28;106488;-63
2022/06/06 06:33:29;;;;;;;;;;;;;;;;;;4968607;28;125305;-63
2022/06/06 06:35:55;;;;;;;;;;;;;;;;;;4969273;28;117330;-63
2022/06/06 06:38:22;;;;;;;;;;;;;;;;;;4967505;28;106254;-63
2022/06/06 06:40:48;;;;;;;;;;;;;;;;;;4964478;28;138214;-64
2022/06/06 06:43:14;;;;;;;;;;;;;;;;;;4966981;28;135828;-63
2022/06/06 06:45:42;;;;;;;;;;;;;;;;;;4969583;28;113162;-63
2022/06/06 06:48:08;;;;;;;;;;;;;;;;;;4968119;28;132428;-63
2022/06/06 06:50:34;;;;;;;;;;;;;;;;;;4976266;28;135334;-63
2022/06/06 06:53:01;;;;;;;;;;;;;;;;;;4973835;28;126587;-62
2022/06/06 06:55:27;;;;;;;;;;;;;;;;;;4959763;28;114773;-62
2022/06/06 06:57:53;;;;;;;;;;;;;;;;;;4960200;28;119629;-63
2022/06/06 07:00:20;;;;;;;;;;;;;;;;;;4962327;28;121070;-62
2022/06/06 07:08:35;;;;;;;;;;;;;;;;;;4954760;28;134921;-63
2022/06/06 07:11:02;;;;;;;;;;;;;;;;;;4966540;28;138058;-63
2022/06/06 07:13:30;;;;;;;;;;;;;;;;;;4970873;28;126946;-63
2022/06/06 07:15:56;;;;;;;;;;;;;;;;;;4966621;28;134342;-65
2022/06/06 07:18:23;;;;;;;;;;;;;;;;;;4958586;28;127077;-65
2022/06/06 07:20:49;;;;;;;;;;;;;;;;;;4960557;28;133056;-65
2022/06/06 07:23:16;;;;;;;;;;;;;;;;;;4964987;28;130630;-67
2022/06/06 07:25:42;;;;;;;;;;;;;;;;;;4968003;28;128110;-65
2022/06/06 07:28:08;;;;;;;;;;;;;;;;;;4966447;28;136305;-63
2022/06/06 07:30:34;;;;;;;;;;;;;;;;;;4963148;28;137348;-64
2022/06/06 07:33:01;;;;;;;;;;;;;;;;;;4963282;28;124488;-64
2022/06/06 07:35:29;;;;;;;;;;;;;;;;;;4964862;28;122992;-64
2022/06/06 07:37:55;;;;;;;;;;;;;;;;;;4960871;28;121981;-64
2022/06/06 07:40:21;;;;;;;;;;;;;;;;;;4967797;28;126517;-63
2022/06/06 07:42:48;;;;;;;;;;;;;;;;;;4968879;28;106421;-63
2022/06/06 07:45:14;;;;;;;;;;;;;;;;;;4968279;28;121355;-63
2022/06/06 07:47:41;;;;;;;;;;;;;;;;;;4970408;28;134968;-63
2022/06/06 07:50:07;;;;;;;;;;;;;;;;;;4966920;28;136921;-64
2022/06/06 07:52:33;;;;;;;;;;;;;;;;;;4962949;28;127510;-63
2022/06/06 07:54:59;;;;;;;;;;;;;;;;;;4966318;28;123575;-63
2022/06/06 07:57:26;;;;;;;;;;;;;;;;;;4969394;28;134031;-63
2022/06/06 07:59:52;;;;;;;;;;;;;;;;;;4967834;28;136406;-63
2022/06/06 08:02:19;;;;;;;;;;;;;;;;;;4968175;28;135932;-63
2022/06/06 08:04:45;;;;;;;;;;;;;;;;;;4975433;28;114354;-63
2022/06/06 08:07:11;;;;;;;;;;;;;;;;;;4965715;28;136608;-64
2022/06/06 08:09:38;;;;;;;;;;;;;;;;;;4978617;28;135021;-64
2022/06/06 08:12:04;;;;;;;;;;;;;;;;;;4965523;28;127229;-65
2022/06/06 08:14:30;;;;;;;;;;;;;;;;;;4967347;28;132697;-63
2022/06/06 08:16:57;;;;;;;;;;;;;;;;;;4960434;28;128677;-64
2022/06/06 08:19:23;;;;;;;;;;;;;;;;;;4960480;28;117553;-63
2022/06/06 08:21:50;;;;;;;;;;;;;;;;;;4980567;28;107278;-63
2022/06/06 08:24:16;;;;;;;;;;;;;;;;;;4965003;28;121270;-63
2022/06/06 08:27:03;;;;;;;;;;;;;;;;;;4967585;28;106282;-63
2022/06/06 08:29:29;;;;;;;;;;;;;;;;;;4964770;28;107909;-63
2022/06/06 08:31:55;;;;;;;;;;;;;;;;;;4965231;28;114037;-63
2022/06/06 08:34:22;;;;;;;;;;;;;;;;;;4966692;28;125891;-64
2022/06/06 08:36:48;;;;;;;;;;;;;;;;;;4968142;28;137202;-64
2022/06/06 08:39:14;;;;;;;;;;;;;;;;;;4967088;28;118513;-63
2022/06/06 08:41:41;;;;;;;;;;;;;;;;;;4966821;28;127604;-64
2022/06/06 08:44:07;;;;;;;;;;;;;;;;;;4958569;28;117409;-63
2022/06/06 08:46:33;;;;;;;;;;;;;;;;;;4963466;28;136450;-64
2022/06/06 08:49:00;;;;;;;;;;;;;;;;;;4962406;28;132159;-63
2022/06/06 08:51:26;;;;;;;;;;;;;;;;;;4959118;28;107354;-63
2022/06/06 08:53:52;;;;;;;;;;;;;;;;;;4960438;28;117574;-63
2022/06/06 08:56:19;;;;;;;;;;;;;;;;;;4964315;28;108306;-64
2022/06/06 08:58:45;;;;;;;;;;;;;;;;;;4964971;28;130750;-63
2022/06/06 09:01:11;;;;;;;;;;;;;;;;;;4968762;28;123959;-64
2022/06/06 09:03:56;;;;;;;;;;;;;;;;;;4966863;28;128590;-63
2022/06/06 09:06:22;;;;;;;;;;;;;;;;;;4954875;28;128301;-63
2022/06/06 09:08:49;;;;;;;;;;;;;;;;;;4964082;28;113001;-62
2022/06/06 09:11:15;;;;;;;;;;;;;;;;;;4975545;28;106674;-62
2022/06/06 09:13:42;;;;;;;;;;;;;;;;;;4966519;28;128523;-63
2022/06/06 09:16:08;;;;;;;;;;;;;;;;;;4964958;28;107772;-63
2022/06/06 09:18:35;;;;;;;;;;;;;;;;;;4960470;28;124305;-63
2022/06/06 09:21:01;;;;;;;;;;;;;;;;;;4962125;28;120654;-63
2022/06/06 09:23:27;;;;;;;;;;;;;;;;;;4967175;28;113081;-62
2022/06/06 09:25:54;;;;;;;;;;;;;;;;;;4966094;28;133640;-63
2022/06/06 09:28:21;;;;;;;;;;;;;;;;;;4961840;28;126030;-64
2022/06/06 09:30:48;;;;;;;;;;;;;;;;;;4953677;28;128742;-63
2022/06/06 09:33:14;;;;;;;;;;;;;;;;;;4961945;28;128496;-64
2022/06/06 09:35:40;;;;;;;;;;;;;;;;;;4975728;28;108179;-64
2022/06/06 09:38:09;;;;;;;;;;;;;;;;;;4967337;28;129072;-63
2022/06/06 09:40:35;;;;;;;;;;;;;;;;;;4960577;28;121040;-64
2022/06/06 09:43:02;;;;;;;;;;;;;;;;;;4969045;28;137952;-63
2022/06/06 09:45:31;;;;;;;;;;;;;;;;;;4966468;28;123919;-64
2022/06/06 09:47:57;;;;;;;;;;;;;;;;;;4992694;28;132511;-65
2022/06/06 09:50:23;;;;;;;;;;;;;;;;;;4966376;28;106483;-65
2022/06/06 09:52:50;;;;;;;;;;;;;;;;;;4964845;28;133707;-64
2022/06/06 10:00:47;;;;;;;;;;;;;;;;;;4961567;28;120269;-63
2022/06/06 10:03:16;;;;;;;;;;;;;;;;;;4957331;28;136553;-64
2022/06/06 10:05:42;;;;;;;;;;;;;;;;;;4968459;28;115509;-63
2022/06/06 10:08:08;;;;;;;;;;;;;;;;;;4969723;28;108400;-63
2022/06/06 10:10:37;;;;;;;;;;;;;;;;;;4963609;28;129497;-63
2022/06/06 10:13:04;;;;;;;;;;;;;;;;;;4968408;28;119086;-65
2022/06/06 10:15:30;;;;;;;;;;;;;;;;;;4971923;28;133340;-64
2022/06/06 10:17:56;;;;;;;;;;;;;;;;;;4964758;28;127504;-64
2022/06/06 10:20:23;;;;;;;;;;;;;;;;;;4969287;28;117837;-63
2022/06/06 10:22:49;;;;;;;;;;;;;;;;;;4968646;28;135469;-64
2022/06/06 10:25:15;;;;;;;;;;;;;;;;;;4968790;28;121580;-63
2022/06/06 10:27:41;;;;;;;;;;;;;;;;;;4964300;28;129642;-63
2022/06/06 10:30:11;;;;;;;;;;;;;;;;;;4971993;28;127844;-63
2022/06/06 10:32:37;;;;;;;;;;;;;;;;;;4968818;28;132534;-63
2022/06/06 10:35:04;;;;;;;;;;;;;;;;;;4969506;28;125880;-64
2022/06/06 10:37:30;;;;;;;;;;;;;;;;;;4968807;28;108352;-62
2022/06/06 10:39:56;;;;;;;;;;;;;;;;;;4968122;28;130367;-63
2022/06/06 10:42:23;;;;;;;;;;;;;;;;;;4966599;28;135462;-63
2022/06/06 10:44:56;;;;;;;;;;;;;;;;;;4958061;28;109739;-64
2022/06/06 10:47:23;;;;;;;;;;;;;;;;;;4970212;28;136169;-64
2022/06/06 10:49:49;;;;;;;;;;;;;;;;;;4972484;28;107707;-63
2022/06/06 10:52:15;;;;;;;;;;;;;;;;;;4964101;28;123011;-63
2022/06/06 10:54:42;;;;;;;;;;;;;;;;;;4969085;28;111821;-64
2022/06/06 10:57:08;;;;;;;;;;;;;;;;;;4968508;28;107923;-63
2022/06/06 10:59:37;;;;;;;;;;;;;;;;;;4973553;28;119207;-63
2022/06/06 11:02:03;;;;;;;;;;;;;;;;;;4971429;28;138152;-63
2022/06/06 11:04:30;;;;;;;;;;;;;;;;;;4964243;28;124394;-63
2022/06/06 11:07:01;;;;;;;;;;;;;;;;;;4967495;28;122003;-63
2022/06/06 11:09:27;;;;;;;;;;;;;;;;;;4966480;28;138196;-62
2022/06/06 11:11:54;;;;;;;;;;;;;;;;;;4973013;28;122704;-62
2022/06/06 11:14:20;;;;;;;;;;;;;;;;;;4968354;28;107545;-62
2022/06/06 11:16:47;;;;;;;;;;;;;;;;;;4965656;28;123077;-62
2022/06/06 11:19:14;;;;;;;;;;;;;;;;;;4963417;28;128648;-61
2022/06/06 11:21:40;;;;;;;;;;;;;;;;;;4968494;28;114795;-62
2022/06/06 11:24:07;;;;;;;;;;;;;;;;;;4958106;28;129015;-63
2022/06/06 11:26:33;;;;;;;;;;;;;;;;;;4956077;28;127148;-62
2022/06/06 11:28:59;;;;;;;;;;;;;;;;;;4966065;28;127863;-62
2022/06/06 11:31:26;;;;;;;;;;;;;;;;;;4955617;28;119587;-65
2022/06/06 11:33:52;;;;;;;;;;;;;;;;;;4957997;28;134347;-65
2022/06/06 11:36:19;;;;;;;;;;;;;;;;;;4958702;28;117704;-65
2022/06/06 11:38:46;;;;;;;;;;;;;;;;;;4958506;28;118679;-65
2022/06/06 11:41:12;;;;;;;;;;;;;;;;;;4958977;28;136527;-65
2022/06/06 11:43:39;;;;;;;;;;;;;;;;;;4964832;28;107716;-63
2022/06/06 11:46:06;;;;;;;;;;;;;;;;;;4958070;28;134884;-64
2022/06/06 11:48:32;;;;;;;;;;;;;;;;;;4962443;28;111229;-63
2022/06/06 11:50:58;;;;;;;;;;;;;;;;;;4963978;28;110471;-65
2022/06/06 11:53:25;;;;;;;;;;;;;;;;;;4962973;28;131758;-62
2022/06/06 11:55:52;;;;;;;;;;;;;;;;;;4965273;28;132450;-63
2022/06/06 11:58:18;;;;;;;;;;;;;;;;;;4963268;28;124903;-65
2022/06/06 12:00:44;;;;;;;;;;;;;;;;;;4966783;28;110870;-64
2022/06/06 12:03:11;;;;;;;;;;;;;;;;;;4966672;28;126207;-65
2022/06/06 12:05:37;;;;;;;;;;;;;;;;;;4957298;28;121650;-65
2022/06/06 12:08:04;;;;;;;;;;;;;;;;;;4966284;28;114289;-64
2022/06/06 12:10:30;;;;;;;;;;;;;;;;;;4963695;28;130122;-65
2022/06/06 12:12:57;;;;;;;;;;;;;;;;;;4960089;28;114716;-66
2022/06/06 12:15:23;;;;;;;;;;;;;;;;;;4963666;28;136327;-65
2022/06/06 12:17:49;;;;;;;;;;;;;;;;;;4983565;28;106226;-64
2022/06/06 12:20:16;;;;;;;;;;;;;;;;;;4963815;28;106810;-64
2022/06/06 12:22:42;;;;;;;;;;;;;;;;;;4967457;28;117649;-64
2022/06/06 12:25:15;;;;;;;;;;;;;;;;;;4965232;28;107046;-64
2022/06/06 12:27:46;;;;;;;;;;;;;;;;;;4964169;28;135722;-63
2022/06/06 12:30:16;;;;;;;;;;;;;;;;;;4963734;28;119464;-64
2022/06/06 12:32:42;;;;;;;;;;;;;;;;;;4960448;28;134043;-64
2022/06/06 12:35:08;;;;;;;;;;;;;;;;;;4963318;28;132584;-63
2022/06/06 12:37:35;;;;;;;;;;;;;;;;;;4958091;28;126510;-64
2022/06/06 12:40:01;;;;;;;;;;;;;;;;;;4975322;28;136591;-63
2022/06/06 12:42:27;;;;;;;;;;;;;;;;;;4967173;28;126426;-63
2022/06/06 12:44:54;;;;;;;;;;;;;;;;;;4967694;28;122015;-64
2022/06/06 12:47:20;;;;;;;;;;;;;;;;;;4966533;28;127304;-63
2022/06/06 12:49:46;;;;;;;;;;;;;;;;;;4966124;28;110068;-63
2022/06/06 12:52:14;;;;;;;;;;;;;;;;;;4966464;28;120375;-63
2022/06/06 12:57:25;;;;;;;;;;;;;;;;;;4958318;28;110225;-64
2022/06/06 12:59:52;;;;;;;;;;;;;;;;;;4969719;28;133998;-65
2022/06/06 13:02:18;;;;;;;;;;;;;;;;;;4962606;28;120335;-64
2022/06/06 13:04:44;;;;;;;;;;;;;;;;;;4970868;28;125533;-64
2022/06/06 13:07:11;;;;;;;;;;;;;;;;;;4960135;28;107701;-64
2022/06/06 13:09:39;;;;;;;;;;;;;;;;;;4961580;28;120001;-64
2022/06/06 13:12:06;;;;;;;;;;;;;;;;;;4961636;28;113054;-64
2022/06/06 13:14:32;;;;;;;;;;;;;;;;;;4966684;28;121083;-64
2022/06/06 13:16:58;;;;;;;;;;;;;;;;;;4966357;28;130233;-63
2022/06/06 13:19:25;;;;;;;;;;;;;;;;;;4967323;28;135325;-64
2022/06/06 13:21:51;;;;;;;;;;;;;;;;;;4962753;28;124408;-63
2022/06/06 13:24:17;;;;;;;;;;;;;;;;;;4967062;28;134239;-64
2022/06/06 13:26:46;;;;;;;;;;;;;;;;;;4965997;28;131445;-63
2022/06/06 13:29:13;;;;;;;;;;;;;;;;;;4962948;28;126938;-63
2022/06/06 13:31:39;;;;;;;;;;;;;;;;;;4965978;28;106018;-64
2022/06/06 13:34:05;;;;;;;;;;;;;;;;;;4963825;28;122778;-64
2022/06/06 13:36:32;;;;;;;;;;;;;;;;;;4966272;28;106613;-65
2022/06/06 13:38:58;;;;;;;;;;;;;;;;;;4963244;28;124453;-63
2022/06/06 13:41:25;;;;;;;;;;;;;;;;;;4960955;28;110107;-65
2022/06/06 13:43:51;;;;;;;;;;;;;;;;;;4968636;28;114977;-62
2022/06/06 13:46:17;;;;;;;;;;;;;;;;;;4957717;28;129888;-63
2022/06/06 13:48:44;;;;;;;;;;;;;;;;;;4964675;28;121658;-63
2022/06/06 13:51:10;;;;;;;;;;;;;;;;;;4962110;28;106936;-63
2022/06/06 13:53:36;;;;;;;;;;;;;;;;;;4965240;28;120936;-63
2022/06/06 13:56:03;;;;;;;;;;;;;;;;;;4966449;28;122334;-63
2022/06/06 13:58:29;;;;;;;;;;;;;;;;;;4965218;28;106894;-63
2022/06/06 14:00:56;;;;;;;;;;;;;;;;;;4964550;28;112151;-65
2022/06/06 14:03:23;;;;;;;;;;;;;;;;;;4965366;28;129998;-64
2022/06/06 14:05:49;;;;;;;;;;;;;;;;;;4967212;28;126045;-64
2022/06/06 14:08:16;;;;;;;;;;;;;;;;;;4960433;28;106840;-63
2022/06/06 14:10:42;;;;;;;;;;;;;;;;;;4962430;28;137393;-66
2022/06/06 14:13:08;;;;;;;;;;;;;;;;;;4964344;28;106162;-65
2022/06/06 14:15:34;;;;;;;;;;;;;;;;;;4965734;28;105824;-63
2022/06/06 14:18:01;;;;;;;;;;;;;;;;;;4967016;28;120116;-62
2022/06/06 14:20:28;;;;;;;;;;;;;;;;;;4965556;28;107200;-62
2022/06/06 14:22:54;;;;;;;;;;;;;;;;;;4960682;28;108933;-62
2022/06/06 14:25:20;;;;;;;;;;;;;;;;;;4964340;28;126519;-62
2022/06/06 14:27:47;;;;;;;;;;;;;;;;;;4966017;28;122943;-63
2022/06/06 14:30:13;;;;;;;;;;;;;;;;;;4959784;28;129989;-62
2022/06/06 14:32:39;;;;;;;;;;;;;;;;;;4962356;28;134977;-63
2022/06/06 14:35:06;;;;;;;;;;;;;;;;;;4963739;28;127528;-63
2022/06/06 14:37:32;;;;;;;;;;;;;;;;;;4968975;28;136199;-63
2022/06/06 14:39:58;;;;;;;;;;;;;;;;;;4965438;28;107487;-63
2022/06/06 14:42:25;;;;;;;;;;;;;;;;;;4969128;28;113508;-64
2022/06/06 14:44:51;;;;;;;;;;;;;;;;;;4967693;28;123438;-63
2022/06/06 14:47:17;;;;;;;;;;;;;;;;;;4967325;28;136440;-63
2022/06/06 14:49:44;;;;;;;;;;;;;;;;;;4971467;28;125892;-62
2022/06/06 14:52:10;;;;;;;;;;;;;;;;;;4964406;28;108413;-65
2022/06/06 14:54:36;;;;;;;;;;;;;;;;;;4960664;28;107942;-63
2022/06/06 14:57:05;;;;;;;;;;;;;;;;;;4952605;27;137492;-65
2022/06/06 14:59:31;;;;;;;;;;;;;;;;;;4968583;28;135657;-65
2022/06/06 15:01:58;;;;;;;;;;;;;;;;;;4970851;27;128128;-65
2022/06/06 15:04:24;;;;;;;;;;;;;;;;;;4969938;28;130136;-65
2022/06/06 15:06:51;;;;;;;;;;;;;;;;;;4972299;28;135097;-65
2022/06/06 15:09:17;;;;;;;;;;;;;;;;;;4971668;28;124098;-65
2022/06/06 15:11:43;;;;;;;;;;;;;;;;;;4965578;28;106223;-65
2022/06/06 15:14:10;;;;;;;;;;;;;;;;;;4967935;28;119479;-65
2022/06/06 15:16:36;;;;;;;;;;;;;;;;;;4974940;28;128473;-66
2022/06/06 15:19:03;;;;;;;;;;;;;;;;;;4952815;28;136207;-65
2022/06/06 15:21:29;;;;;;;;;;;;;;;;;;4959504;28;107963;-65
2022/06/06 15:23:56;;;;;;;;;;;;;;;;;;4961102;28;134385;-66
2022/06/06 15:26:32;;;;;;;;;;;;;;;;;;4960897;28;135927;-66
2022/06/06 15:28:58;;;;;;;;;;;;;;;;;;4943432;28;123619;-66
2022/06/06 15:31:26;;;;;;;;;;;;;;;;;;4962150;28;135091;-66
2022/06/06 15:33:52;;;;;;;;;;;;;;;;;;4963701;28;123218;-65
2022/06/06 15:36:18;;;;;;;;;;;;;;;;;;4964088;28;106830;-65
2022/06/06 15:38:45;;;;;;;;;;;;;;;;;;4962200;28;124353;-65
2022/06/06 15:41:12;;;;;;;;;;;;;;;;;;4960855;27;128652;-68
2022/06/06 15:43:39;;;;;;;;;;;;;;;;;;4965080;28;125204;-65
2022/06/06 15:46:06;;;;;;;;;;;;;;;;;;4958239;28;122068;-66
2022/06/06 15:48:32;;;;;;;;;;;;;;;;;;4956019;28;115886;-65
2022/06/06 15:50:58;;;;;;;;;;;;;;;;;;4964213;28;127673;-65
2022/06/06 15:53:25;;;;;;;;;;;;;;;;;;4968640;28;127640;-65
2022/06/06 15:55:51;;;;;;;;;;;;;;;;;;4963778;28;118201;-63
2022/06/06 15:58:17;;;;;;;;;;;;;;;;;;4964969;28;112313;-64
2022/06/06 16:00:44;;;;;;;;;;;;;;;;;;4964426;28;127952;-63
2022/06/06 16:03:10;;;;;;;;;;;;;;;;;;4964948;28;127950;-64
2022/06/06 16:05:38;;;;;;;;;;;;;;;;;;4954479;28;115901;-63
2022/06/06 16:08:04;;;;;;;;;;;;;;;;;;4961744;28;113371;-66
2022/06/06 16:10:30;;;;;;;;;;;;;;;;;;4900080;28;1890947;-70
2022/06/06 16:12:57;;;;;;;;;;;;;;;;;;4958565;28;130542;-66
2022/06/06 16:15:24;;;;;;;;;;;;;;;;;;4967916;28;118178;-66
2022/06/06 16:17:51;;;;;;;;;;;;;;;;;;4969815;28;121150;-66
2022/06/06 16:20:18;;;;;;;;;;;;;;;;;;4970043;28;124797;-65
2022/06/06 16:22:45;;;;;;;;;;;;;;;;;;4965566;28;131183;-66
2022/06/06 16:25:13;;;;;;;;;;;;;;;;;;4965411;28;129932;-66
2022/06/06 16:27:40;;;;;;;;;;;;;;;;;;4965884;28;109230;-66
2022/06/06 16:30:09;;;;;;;;;;;;;;;;;;4965255;28;121340;-66
2022/06/06 16:32:35;;;;;;;;;;;;;;;;;;4954320;28;124254;-65
2022/06/06 16:35:02;;;;;;;;;;;;;;;;;;4963265;28;127400;-67
2022/06/06 16:37:28;;;;;;;;;;;;;;;;;;4964552;28;131491;-66
2022/06/06 16:39:55;;;;;;;;;;;;;;;;;;4970986;28;128266;-65
2022/06/06 16:47:56;;;;;;;;;;;;;;;;;;4966277;28;121892;-65
2022/06/06 16:50:22;;;;;;;;;;;;;;;;;;4959516;28;108025;-66
2022/06/06 16:52:49;;;;;;;;;;;;;;;;;;4957101;28;130243;-65